Amalia — SXMT — position and weather

sailwx.info

Track history (hours):
 
Tides and Currents Weather Stations Pressure Air Temp Water Temp Dewpoint Dewpoint Depression Visibility Wind Speed Wind Dir Waves Ship Positions

Amalia

Last reported at 2015-Jun-24 15:21 UTC. Time now 2015-Jul-29 22:03 UTC.
Position S 26°39' E 035°56'.
Warning: this ship's position is 35 days out of date.

Length 225 m; draft 10.7 m.

Type: Cargo ship. MMSI: 239652000.

Date/timePositionNaut miles runAvg speedWind from/ knotsBaromVisibWave heightAir tempDewpointWater temp
2015-Jun-24 15:21S 26°39' E 035°56'2212.2
2015-Jun-24 13:33S 26°58' E 035°43'1212.1
2015-Jun-24 12:33S 27°08' E 035°36'1211.6
2015-Jun-24 11:33S 27°18' E 035°29'1211.5
2015-Jun-24 10:33S 27°28' E 035°23'11012.0
2015-Jun-24 01:26S 28°36' E 033°45'1413.0
2015-Jun-24 00:24S 28°43' E 033°32'5412.8
2015-Jun-23 20:12S 29°09' E 032°38'812.4
2015-Jun-23 19:31S 29°13' E 032°30'512.3
2015-Jun-23 19:05S 29°15' E 032°24'214 7.7
2015-Jun-22 15:16S 31°47' E 029°28'  
Track history (hours):
 
Tides and Currents Weather Stations Pressure Air Temp Water Temp Dewpoint Dewpoint Depression Visibility Wind Speed Wind Dir Waves Ship Positions

Amalia

Last reported at 2015-Jun-24 15:21 UTC. Time now 2015-Jul-29 22:03 UTC.
Position S 26°39' E 035°56'.
Warning: this ship's position is 35 days out of date.

Length 225 m; draft 10.7 m.

Type: Cargo ship. MMSI: 239652000.

Date/timePositionNaut miles runAvg speedWind from/ knotsBaromVisibWave heightAir tempDewpointWater temp
2015-Jun-24 15:21S 26°39' E 035°56'2212.2
2015-Jun-24 13:33S 26°58' E 035°43'1212.1
2015-Jun-24 12:33S 27°08' E 035°36'1211.6
2015-Jun-24 11:33S 27°18' E 035°29'1211.5
2015-Jun-24 10:33S 27°28' E 035°23'11012.0
2015-Jun-24 01:26S 28°36' E 033°45'1413.0
2015-Jun-24 00:24S 28°43' E 033°32'5412.8
2015-Jun-23 20:12S 29°09' E 032°38'812.4
2015-Jun-23 19:31S 29°13' E 032°30'512.3
2015-Jun-23 19:05S 29°15' E 032°24'214 7.7
2015-Jun-22 15:16S 31°47' E 029°28'  

Dump ship's entire track history